createdAt,value
2018-12-07T00:01:58.397Z,0.85
2018-12-07T00:04:27.390Z,0.82
2018-12-07T00:06:56.535Z,0.74
2018-12-07T00:09:25.389Z,0.68
2018-12-07T00:11:54.995Z,0.56
2018-12-07T00:14:23.819Z,0.50
2018-12-07T00:16:53.067Z,0.42
2018-12-07T00:19:23.000Z,0.42
2018-12-07T00:21:51.828Z,0.29
2018-12-07T00:24:20.703Z,0.26
2018-12-07T00:26:49.532Z,0.33
2018-12-07T00:29:18.407Z,0.40
2018-12-07T00:31:47.247Z,0.48
2018-12-07T00:34:16.111Z,0.48
2018-12-07T00:36:44.919Z,0.64
2018-12-07T00:39:13.744Z,0.65
2018-12-07T00:41:42.651Z,0.62
2018-12-07T00:44:11.676Z,0.53
2018-12-07T00:46:40.447Z,0.40
2018-12-07T00:49:09.371Z,0.34
2018-12-07T00:51:38.573Z,0.39
2018-12-07T00:54:07.467Z,0.47
2018-12-07T00:56:36.671Z,0.49
2018-12-07T00:59:05.471Z,0.41
2018-12-07T01:01:34.435Z,0.34
2018-12-07T01:04:03.275Z,0.42
2018-12-07T01:06:32.436Z,0.40
2018-12-07T01:09:01.615Z,0.35
2018-12-07T01:11:30.470Z,0.26
2018-12-07T01:13:59.722Z,0.24
2018-12-07T01:16:28.566Z,0.30
2018-12-07T01:18:57.695Z,0.28
2018-12-07T01:21:26.720Z,0.31
2018-12-07T01:23:55.591Z,0.25
2018-12-07T01:26:24.444Z,0.27
2018-12-07T01:28:53.243Z,0.26
2018-12-07T01:31:22.287Z,0.22
2018-12-07T01:33:51.361Z,0.17
2018-12-07T01:36:20.239Z,0.12
2018-12-07T01:38:49.175Z,0.02
2018-12-07T01:41:18.341Z,0.12
2018-12-07T01:43:47.420Z,0.19
2018-12-07T01:46:16.628Z,0.17
2018-12-07T01:48:45.689Z,0.14
2018-12-07T01:51:14.636Z,0.08
2018-12-07T01:53:43.903Z,0.15
2018-12-07T01:56:12.907Z,0.15
2018-12-07T01:58:42.004Z,0.10
2018-12-07T02:01:11.099Z,-0.02
2018-12-07T02:03:39.950Z,-0.10
2018-12-07T02:06:15.612Z,-0.07
2018-12-07T02:08:44.739Z,-0.04
2018-12-07T02:11:13.628Z,-0.08
2018-12-07T02:13:42.835Z,-0.16
2018-12-07T02:16:12.032Z,-0.27
2018-12-07T02:18:41.128Z,-0.24
2018-12-07T02:21:09.917Z,-0.14
2018-12-07T02:23:39.123Z,-0.05
2018-12-07T02:26:08.004Z,-0.05
2018-12-07T02:28:37.099Z,-0.12
2018-12-07T02:31:06.346Z,-0.09
2018-12-07T02:33:35.491Z,-0.07
2018-12-07T02:36:04.901Z,-0.05
2018-12-07T02:38:34.110Z,-0.09
2018-12-07T02:41:03.296Z,-0.17
2018-12-07T02:43:32.490Z,-0.15
2018-12-07T02:46:01.631Z,-0.11
2018-12-07T02:48:30.893Z,-0.11
2018-12-07T02:50:59.924Z,-0.22
2018-12-07T02:53:29.091Z,-0.34
2018-12-07T02:55:57.976Z,-0.34
2018-12-07T02:58:27.110Z,-0.26
2018-12-07T03:00:56.081Z,-0.24
2018-12-07T03:03:24.964Z,-0.25
2018-12-07T03:05:54.081Z,-0.30
2018-12-07T03:08:22.968Z,-0.44
2018-12-07T03:10:52.148Z,-0.45
2018-12-07T03:13:20.947Z,-0.45
2018-12-07T03:15:50.373Z,-0.36
2018-12-07T03:18:30.280Z,-0.39
2018-12-07T03:20:59.895Z,-0.47
2018-12-07T03:23:29.089Z,-0.43
2018-12-07T03:25:58.178Z,-0.46
2018-12-07T03:28:27.376Z,-0.52
2018-12-07T03:30:56.631Z,-0.50
2018-12-07T03:33:25.875Z,-0.55
2018-12-07T03:35:55.079Z,-0.42
2018-12-07T03:38:23.913Z,-0.34
2018-12-07T03:40:53.037Z,-0.39
2018-12-07T03:43:21.984Z,-0.45
2018-12-07T03:45:51.063Z,-0.44
2018-12-07T03:48:20.244Z,-0.47
2018-12-07T03:50:49.351Z,-0.44
2018-12-07T03:53:18.332Z,-0.44
2018-12-07T03:55:47.225Z,-0.44
2018-12-07T03:58:16.435Z,-0.49
2018-12-07T04:00:45.527Z,-0.59
2018-12-07T04:03:14.726Z,-0.61
2018-12-07T04:05:43.811Z,-0.74
2018-12-07T04:08:13.315Z,-0.75
2018-12-07T04:10:42.527Z,-0.77
2018-12-07T04:13:11.791Z,-0.84
2018-12-07T04:15:41.101Z,-0.81
2018-12-07T04:18:10.214Z,-0.80
2018-12-07T04:20:39.103Z,-0.81
2018-12-07T04:23:08.391Z,-0.87
2018-12-07T04:25:37.507Z,-0.96
2018-12-07T04:28:06.506Z,-1.01
2018-12-07T04:30:35.600Z,-0.95
2018-12-07T04:33:04.816Z,-0.98
2018-12-07T04:35:33.996Z,-1.01
2018-12-07T04:38:03.351Z,-1.09
2018-12-07T04:40:32.496Z,-1.21
2018-12-07T04:43:01.605Z,-1.15
2018-12-07T04:45:30.804Z,-1.15
2018-12-07T04:47:59.992Z,-1.17
2018-12-07T04:50:29.341Z,-1.08
2018-12-07T04:52:58.241Z,-1.10
2018-12-07T04:55:27.373Z,-1.07
2018-12-07T04:57:58.649Z,-1.13
2018-12-07T05:00:27.824Z,-1.20
2018-12-07T05:02:56.930Z,-1.27
2018-12-07T05:05:26.525Z,-1.15
2018-12-07T05:07:55.559Z,-1.26
2018-12-07T05:10:24.392Z,-1.22
2018-12-07T05:12:53.264Z,-1.25
2018-12-07T05:15:22.704Z,-1.26
2018-12-07T05:17:52.469Z,-1.34
2018-12-07T05:20:21.329Z,-1.28
2018-12-07T05:22:50.644Z,-1.27
2018-12-07T05:25:19.664Z,-1.23
2018-12-07T05:27:49.032Z,-1.23
2018-12-07T05:30:17.994Z,-1.14
2018-12-07T05:32:47.103Z,-1.12
2018-12-07T05:35:16.288Z,-1.07
2018-12-07T05:37:45.063Z,-1.08
2018-12-07T05:40:14.198Z,-1.09
2018-12-07T05:42:43.386Z,-1.07
2018-12-07T05:45:11.947Z,-1.14
2018-12-07T05:47:40.833Z,-1.14
2018-12-07T05:50:10.056Z,-1.15
2018-12-07T05:52:39.253Z,-1.10
2018-12-07T05:55:08.964Z,-1.09
2018-12-07T05:57:38.053Z,-1.05
2018-12-07T06:00:08.785Z,-1.09
2018-12-07T06:02:37.988Z,-1.17
2018-12-07T06:05:14.491Z,-1.15
2018-12-07T06:07:43.640Z,-1.08
2018-12-07T06:10:12.846Z,-1.07
2018-12-07T06:12:42.175Z,-1.04
2018-12-07T06:15:11.584Z,-0.97
2018-12-07T06:17:40.564Z,-0.90
2018-12-07T06:20:09.663Z,-0.84
2018-12-07T06:22:38.744Z,-0.85
2018-12-07T06:25:08.082Z,-0.84
2018-12-07T06:27:37.143Z,-0.85
2018-12-07T06:30:07.051Z,-0.82
2018-12-07T06:32:36.524Z,-0.78
2018-12-07T06:35:05.855Z,-0.79
2018-12-07T06:37:36.612Z,-0.82
2018-12-07T06:40:06.190Z,-0.83
2018-12-07T06:42:35.136Z,-0.77
2018-12-07T06:45:04.408Z,-0.75
2018-12-07T06:47:33.613Z,-0.70
2018-12-07T06:50:02.800Z,-0.68
2018-12-07T06:52:32.193Z,-0.61
2018-12-07T06:55:01.496Z,-0.55
2018-12-07T06:57:30.802Z,-0.51
2018-12-07T06:59:59.652Z,-0.47
2018-12-07T07:02:28.704Z,-0.41
2018-12-07T07:04:58.180Z,-0.39
2018-12-07T07:07:27.464Z,-0.29
2018-12-07T07:09:57.395Z,-0.21
2018-12-07T07:12:26.599Z,-0.14
2018-12-07T07:14:55.798Z,-0.05
2018-12-07T07:17:24.992Z,0.04
2018-12-07T07:19:54.094Z,0.08
2018-12-07T07:22:23.183Z,0.03
2018-12-07T07:24:52.247Z,0.08
2018-12-07T07:27:21.484Z,0.19
2018-12-07T07:29:50.609Z,0.22
2018-12-07T07:32:19.776Z,0.22
2018-12-07T07:34:48.608Z,0.24
2018-12-07T07:37:17.867Z,0.27
2018-12-07T07:39:46.785Z,0.31
2018-12-07T07:42:16.740Z,0.36
2018-12-07T07:44:46.344Z,0.35
2018-12-07T07:47:15.493Z,0.44
2018-12-07T07:49:45.183Z,0.43
2018-12-07T07:52:14.372Z,0.55
2018-12-07T07:54:43.981Z,0.68
2018-12-07T07:57:13.189Z,0.78
2018-12-07T07:59:42.459Z,0.79
2018-12-07T08:02:11.408Z,0.85
2018-12-07T08:04:40.891Z,0.86
2018-12-07T08:07:10.003Z,0.93
2018-12-07T08:09:39.175Z,1.07
2018-12-07T08:12:08.087Z,1.18
2018-12-07T08:14:36.956Z,1.31
2018-12-07T08:17:06.210Z,1.40
2018-12-07T08:19:35.420Z,1.50
2018-12-07T08:22:04.248Z,1.51
2018-12-07T08:24:33.899Z,1.65
2018-12-07T08:27:03.051Z,1.59
2018-12-07T08:29:32.151Z,1.84
2018-12-07T08:32:01.359Z,1.96
2018-12-07T08:34:30.548Z,2.09
2018-12-07T08:36:59.758Z,2.25
2018-12-07T08:39:28.950Z,2.35
2018-12-07T08:41:57.799Z,2.27
2018-12-07T08:44:27.116Z,2.32
2018-12-07T08:46:56.361Z,2.44
2018-12-07T08:49:30.387Z,2.53
2018-12-07T08:51:59.551Z,2.65
2018-12-07T08:54:28.740Z,2.78
2018-12-07T08:56:57.651Z,2.94
2018-12-07T08:59:26.864Z,3.03
2018-12-07T09:01:55.735Z,3.23
2018-12-07T09:04:24.825Z,3.42
2018-12-07T09:06:54.027Z,3.56
2018-12-07T09:09:22.923Z,3.76
2018-12-07T09:11:52.027Z,3.92
2018-12-07T09:14:20.856Z,4.05
2018-12-07T09:16:49.969Z,4.19
2018-12-07T09:19:18.887Z,4.28
2018-12-07T09:21:48.105Z,4.19
2018-12-07T09:24:16.927Z,4.19
2018-12-07T09:26:46.356Z,4.17
2018-12-07T09:29:15.476Z,4.13
2018-12-07T09:31:44.467Z,3.83
2018-12-07T09:34:13.308Z,3.55
2018-12-07T09:36:42.561Z,3.52
2018-12-07T09:39:11.714Z,3.45
2018-12-07T09:41:40.852Z,3.34
2018-12-07T09:44:09.675Z,3.54
2018-12-07T09:46:38.608Z,3.62
2018-12-07T09:49:07.732Z,3.77
2018-12-07T09:51:36.795Z,3.97
2018-12-07T09:54:05.938Z,4.21
2018-12-07T09:56:35.425Z,4.38
2018-12-07T09:59:04.511Z,4.49
2018-12-07T10:01:33.317Z,4.47
2018-12-07T10:04:02.864Z,4.54
2018-12-07T10:06:32.146Z,4.64
2018-12-07T10:09:07.767Z,4.43
2018-12-07T10:11:36.743Z,4.62
2018-12-07T10:14:05.652Z,4.38
2018-12-07T10:16:34.619Z,4.46
2018-12-07T10:19:03.742Z,4.79
2018-12-07T10:21:32.593Z,4.56
2018-12-07T10:24:01.708Z,4.81
2018-12-07T10:26:30.922Z,4.76
2018-12-07T10:29:00.336Z,4.61
2018-12-07T10:31:29.828Z,4.58
2018-12-07T10:33:59.152Z,5.14
2018-12-07T10:36:34.982Z,5.55
2018-12-07T10:39:05.323Z,5.94
2018-12-07T10:41:34.533Z,6.20
2018-12-07T10:44:03.484Z,6.48
2018-12-07T10:46:32.627Z,6.57
2018-12-07T10:49:01.655Z,6.63
2018-12-07T10:51:30.634Z,6.81
2018-12-07T10:53:59.451Z,7.03
2018-12-07T10:56:28.570Z,7.04
2018-12-07T10:58:58.074Z,7.06
2018-12-07T11:01:32.076Z,6.83
2018-12-07T11:04:06.553Z,6.48
2018-12-07T11:06:40.539Z,6.61
2018-12-07T11:09:14.861Z,6.70
2018-12-07T11:11:52.032Z,6.68
2018-12-07T11:15:28.219Z,6.59
2018-12-07T11:18:02.535Z,6.87
2018-12-07T11:20:36.711Z,7.04
2018-12-07T11:23:11.131Z,6.54
2018-12-07T11:25:45.372Z,6.50
2018-12-07T11:28:19.476Z,6.17
2018-12-07T11:30:53.513Z,5.64
2018-12-07T11:33:44.179Z,5.58
2018-12-07T11:36:13.913Z,6.15
2018-12-07T11:38:43.121Z,6.49
2018-12-07T11:41:11.986Z,6.73
2018-12-07T11:43:40.915Z,6.97
2018-12-07T11:46:10.495Z,7.02
2018-12-07T11:48:39.796Z,7.00
2018-12-07T11:51:08.987Z,6.64
2018-12-07T11:53:37.878Z,6.37
2018-12-07T11:56:07.088Z,5.98
2018-12-07T11:58:36.290Z,5.57
2018-12-07T12:01:05.243Z,5.39
2018-12-07T12:03:35.106Z,5.52
2018-12-07T12:06:05.046Z,5.45
2018-12-07T12:08:33.861Z,5.54
2018-12-07T12:11:03.410Z,5.72
2018-12-07T12:13:33.029Z,5.71
2018-12-07T12:16:03.980Z,5.57
2018-12-07T12:18:33.219Z,5.70
2018-12-07T12:21:02.283Z,5.65
2018-12-07T12:23:31.088Z,5.61
2018-12-07T12:26:00.170Z,5.66
2018-12-07T12:28:29.141Z,5.73
2018-12-07T12:30:58.466Z,5.83
2018-12-07T12:33:27.718Z,5.80
2018-12-07T12:35:56.917Z,5.78
2018-12-07T12:38:26.010Z,5.99
2018-12-07T12:40:54.845Z,5.85
2018-12-07T12:43:24.197Z,5.84
2018-12-07T12:45:53.708Z,5.53
2018-12-07T12:48:22.804Z,5.53
2018-12-07T12:50:51.811Z,5.77
2018-12-07T12:53:21.012Z,5.91
2018-12-07T12:55:50.094Z,5.58
2018-12-07T12:58:19.287Z,5.78
2018-12-07T13:00:48.400Z,5.27
2018-12-07T13:03:17.481Z,5.51
2018-12-07T13:05:46.704Z,5.76
2018-12-07T13:08:15.512Z,5.90
2018-12-07T13:10:44.344Z,5.86
2018-12-07T13:13:13.559Z,5.45
2018-12-07T13:15:42.655Z,5.36
2018-12-07T13:18:11.998Z,5.65
2018-12-07T13:20:40.887Z,5.84
2018-12-07T13:23:09.879Z,5.98
2018-12-07T13:25:39.450Z,5.79
2018-12-07T13:28:08.255Z,5.90
2018-12-07T13:30:37.848Z,5.88
2018-12-07T13:33:07.858Z,5.99
2018-12-07T13:35:37.755Z,6.05
2018-12-07T13:38:07.280Z,5.93
2018-12-07T13:40:36.327Z,5.70
2018-12-07T13:43:05.595Z,5.25
2018-12-07T13:45:41.156Z,5.34
2018-12-07T13:48:10.271Z,5.10
2018-12-07T13:50:42.144Z,5.36
2018-12-07T13:53:11.363Z,5.38
2018-12-07T13:55:40.977Z,5.27
2018-12-07T13:58:10.557Z,5.21
2018-12-07T14:00:40.005Z,5.13
2018-12-07T14:03:08.932Z,5.31
2018-12-07T14:05:38.073Z,5.26
2018-12-07T14:08:07.427Z,5.35
2018-12-07T14:10:36.636Z,5.36
2018-12-07T14:13:05.800Z,5.33
2018-12-07T14:15:34.955Z,5.27
2018-12-07T14:18:04.166Z,5.23
2018-12-07T14:20:33.503Z,5.21
2018-12-07T14:23:02.384Z,5.15
2018-12-07T14:25:31.764Z,5.08
2018-12-07T14:28:01.127Z,5.17
2018-12-07T14:30:30.330Z,5.13
2018-12-07T14:33:00.915Z,5.02
2018-12-07T14:35:31.501Z,4.96
2018-12-07T14:38:01.203Z,4.89
2018-12-07T14:40:31.419Z,4.88
2018-12-07T14:43:00.614Z,4.90
2018-12-07T14:45:29.670Z,4.97
2018-12-07T14:47:59.041Z,4.82
2018-12-07T14:50:28.289Z,4.79
2018-12-07T14:52:57.624Z,4.79
2018-12-07T14:55:26.879Z,4.87
2018-12-07T14:57:56.303Z,4.87
2018-12-07T15:00:25.629Z,4.85
2018-12-07T15:02:54.890Z,4.80
2018-12-07T15:05:24.179Z,4.64
2018-12-07T15:07:53.511Z,4.53
2018-12-07T15:10:22.736Z,4.46
2018-12-07T15:12:52.127Z,4.45
2018-12-07T15:15:21.479Z,4.54
2018-12-07T15:17:50.711Z,4.51
2018-12-07T15:20:20.094Z,4.60
2018-12-07T15:22:49.182Z,4.53
2018-12-07T15:25:18.374Z,4.51
2018-12-07T15:27:48.003Z,4.52
2018-12-07T15:30:17.557Z,4.50
2018-12-07T15:32:46.504Z,4.46
2018-12-07T15:35:15.430Z,4.40
2018-12-07T15:37:45.014Z,4.31
2018-12-07T15:40:15.293Z,4.34
2018-12-07T15:42:45.090Z,4.30
2018-12-07T15:45:15.283Z,4.30
2018-12-07T15:47:44.878Z,4.25
2018-12-07T15:50:14.620Z,4.24
2018-12-07T15:52:44.071Z,4.17
2018-12-07T15:55:13.207Z,4.11
2018-12-07T15:57:42.347Z,4.01
2018-12-07T16:00:12.129Z,4.06
2018-12-07T16:02:41.456Z,4.04
2018-12-07T16:05:10.727Z,4.12
2018-12-07T16:07:40.069Z,4.02
2018-12-07T16:10:09.631Z,3.94
2018-12-07T16:12:39.174Z,3.94
2018-12-07T16:15:08.921Z,3.84
2018-12-07T16:17:37.801Z,3.82
2018-12-07T16:20:11.256Z,3.77
2018-12-07T16:22:40.335Z,3.67
2018-12-07T16:25:09.695Z,3.59
2018-12-07T16:27:39.147Z,3.59
2018-12-07T16:30:10.630Z,3.71
2018-12-07T16:32:39.729Z,3.68
2018-12-07T16:35:09.109Z,3.63
2018-12-07T16:37:38.646Z,3.67
2018-12-07T16:40:09.406Z,3.71
2018-12-07T16:42:38.605Z,3.71
2018-12-07T16:45:08.035Z,3.71
2018-12-07T16:47:38.249Z,3.80
2018-12-07T16:50:08.472Z,3.80
2018-12-07T16:52:37.667Z,3.78
2018-12-07T16:55:07.103Z,3.81
2018-12-07T16:57:36.024Z,3.75
2018-12-07T17:00:05.851Z,3.75
2018-12-07T17:02:35.637Z,3.74
2018-12-07T17:05:05.879Z,3.73
2018-12-07T17:07:34.876Z,3.73
2018-12-07T17:10:04.246Z,3.68
2018-12-07T17:12:33.676Z,3.60
2018-12-07T17:15:03.381Z,3.62
2018-12-07T17:17:32.700Z,3.67
2018-12-07T17:20:01.812Z,3.68
2018-12-07T17:22:31.325Z,3.63
2018-12-07T17:25:00.563Z,3.63
2018-12-07T17:27:29.836Z,3.53
2018-12-07T17:29:59.093Z,3.41
2018-12-07T17:32:28.970Z,3.44
2018-12-07T17:34:58.035Z,3.42
2018-12-07T17:37:27.199Z,3.44
2018-12-07T17:39:56.115Z,3.53
2018-12-07T17:42:29.515Z,3.48
2018-12-07T17:44:56.482Z,3.42
2018-12-07T17:47:25.960Z,3.46
2018-12-07T17:49:55.309Z,3.49
2018-12-07T17:52:25.265Z,3.40
2018-12-07T17:54:54.799Z,3.34
2018-12-07T17:57:25.432Z,3.32
2018-12-07T17:59:54.726Z,3.17
2018-12-07T18:02:24.121Z,3.04
2018-12-07T18:04:53.757Z,2.97
2018-12-07T18:07:23.069Z,2.84
2018-12-07T18:09:52.276Z,2.83
2018-12-07T18:12:21.492Z,2.75
2018-12-07T18:14:50.802Z,2.75
2018-12-07T18:17:19.803Z,2.70
2018-12-07T18:19:48.874Z,2.65
2018-12-07T18:22:18.147Z,2.53
2018-12-07T18:24:47.384Z,2.48
2018-12-07T18:27:16.659Z,2.48
2018-12-07T18:29:45.650Z,2.49
2018-12-07T18:32:15.065Z,2.51
2018-12-07T18:34:44.162Z,2.57
2018-12-07T18:37:13.409Z,2.61
2018-12-07T18:39:42.584Z,2.61
2018-12-07T18:42:11.913Z,2.54
2018-12-07T18:44:41.012Z,2.56
2018-12-07T18:47:10.374Z,2.56
2018-12-07T18:49:39.707Z,2.52
2018-12-07T18:52:09.065Z,2.50
2018-12-07T18:54:39.111Z,2.42
2018-12-07T18:57:08.479Z,2.24
2018-12-07T18:59:37.937Z,2.19
2018-12-07T19:02:07.266Z,2.14
2018-12-07T19:04:36.459Z,2.16
2018-12-07T19:07:05.736Z,2.08
2018-12-07T19:09:34.895Z,1.94
2018-12-07T19:12:04.180Z,1.91
2018-12-07T19:14:33.519Z,1.83
2018-12-07T19:17:02.431Z,1.78
2018-12-07T19:19:31.433Z,1.82
2018-12-07T19:22:00.568Z,1.81
2018-12-07T19:24:29.722Z,1.72
2018-12-07T19:26:58.825Z,1.57
2018-12-07T19:29:28.737Z,1.59
2018-12-07T19:31:57.782Z,1.62
2018-12-07T19:34:26.949Z,1.63
2018-12-07T19:36:56.294Z,1.59
2018-12-07T19:39:25.356Z,1.43
2018-12-07T19:41:54.206Z,1.34
2018-12-07T19:44:23.552Z,1.37
2018-12-07T19:46:53.107Z,1.40
2018-12-07T19:49:22.656Z,1.44
2018-12-07T19:51:51.887Z,1.43
2018-12-07T19:54:21.285Z,1.34
2018-12-07T19:56:50.396Z,1.44
2018-12-07T19:59:19.589Z,1.43
2018-12-07T20:01:48.919Z,1.43
2018-12-07T20:04:18.980Z,1.53
2018-12-07T20:06:48.242Z,1.43
2018-12-07T20:09:17.754Z,1.38
2018-12-07T20:11:46.896Z,1.28
2018-12-07T20:14:16.644Z,1.34
2018-12-07T20:16:45.921Z,1.35
2018-12-07T20:19:15.786Z,1.28
2018-12-07T20:21:46.314Z,1.21
2018-12-07T20:24:16.072Z,1.23
2018-12-07T20:26:45.666Z,1.26
2018-12-07T20:29:15.198Z,1.44
2018-12-07T20:31:44.450Z,1.44
2018-12-07T20:34:13.707Z,1.49
2018-12-07T20:36:42.914Z,1.46
2018-12-07T20:39:11.956Z,1.43
2018-12-07T20:41:41.128Z,1.46
2018-12-07T20:44:10.106Z,1.45
2018-12-07T20:46:39.260Z,1.39
2018-12-07T20:49:08.231Z,1.42
2018-12-07T20:51:38.026Z,1.39
2018-12-07T20:54:07.457Z,1.38
2018-12-07T20:56:36.491Z,1.42
2018-12-07T20:59:05.814Z,1.47
2018-12-07T21:01:35.172Z,1.47
2018-12-07T21:04:40.431Z,1.40
2018-12-07T21:07:43.871Z,1.40
2018-12-07T21:11:27.050Z,1.33
2018-12-07T21:14:17.711Z,1.23
2018-12-07T21:17:01.568Z,1.22
2018-12-07T21:19:31.057Z,1.22
2018-12-07T21:22:00.338Z,1.13
2018-12-07T21:24:29.802Z,1.07
2018-12-07T21:26:58.983Z,1.00
2018-12-07T21:29:27.834Z,1.03
2018-12-07T21:31:59.081Z,0.99
2018-12-07T21:34:39.916Z,0.99
2018-12-07T21:37:08.967Z,0.86
2018-12-07T21:39:44.567Z,0.95
2018-12-07T21:42:14.078Z,0.96
2018-12-07T21:44:43.230Z,0.95
2018-12-07T21:47:12.448Z,0.96
2018-12-07T21:49:50.201Z,1.01
2018-12-07T21:52:26.173Z,1.03
2018-12-07T21:54:55.591Z,1.00
2018-12-07T21:57:24.903Z,0.85
2018-12-07T21:59:54.400Z,0.88
2018-12-07T22:02:23.858Z,0.93
2018-12-07T22:04:53.145Z,0.86
2018-12-07T22:07:22.626Z,0.80
2018-12-07T22:09:51.746Z,0.76
2018-12-07T22:12:20.831Z,0.71
2018-12-07T22:14:49.717Z,0.68
2018-12-07T22:17:19.324Z,0.66
2018-12-07T22:19:48.718Z,0.64
2018-12-07T22:22:18.154Z,0.68
2018-12-07T22:24:47.975Z,0.68
2018-12-07T22:27:17.230Z,0.64
2018-12-07T22:29:46.308Z,0.65
2018-12-07T22:32:15.319Z,0.67
2018-12-07T22:34:45.123Z,0.55
2018-12-07T22:37:14.301Z,0.58
2018-12-07T22:39:43.576Z,0.54
2018-12-07T22:42:13.372Z,0.47
2018-12-07T22:44:43.010Z,0.46
2018-12-07T22:47:12.563Z,0.43
2018-12-07T22:49:42.632Z,0.39
2018-12-07T22:52:11.756Z,0.36
2018-12-07T22:54:40.947Z,0.41
2018-12-07T22:57:09.974Z,0.37
2018-12-07T22:59:39.344Z,0.34
2018-12-07T23:02:08.280Z,0.32
2018-12-07T23:04:37.139Z,0.29
2018-12-07T23:07:06.340Z,0.26
2018-12-07T23:09:35.395Z,0.22
2018-12-07T23:12:04.515Z,0.19
2018-12-07T23:14:33.406Z,0.21
2018-12-07T23:17:02.681Z,0.17
2018-12-07T23:19:31.808Z,0.12
2018-12-07T23:22:00.788Z,0.09
2018-12-07T23:24:30.163Z,0.05
2018-12-07T23:26:59.057Z,-0.01
2018-12-07T23:29:28.158Z,-0.02
2018-12-07T23:31:56.968Z,-0.06
2018-12-07T23:34:26.131Z,-0.13
2018-12-07T23:36:55.319Z,-0.08
2018-12-07T23:39:24.228Z,-0.07
2018-12-07T23:41:54.020Z,-0.10
2018-12-07T23:44:23.132Z,-0.14
2018-12-07T23:46:52.513Z,-0.25
2018-12-07T23:49:21.764Z,-0.18
2018-12-07T23:51:52.695Z,-0.12
2018-12-07T23:54:22.560Z,-0.12
2018-12-07T23:56:51.357Z,-0.16
2018-12-07T23:59:20.297Z,-0.20
